Main page
METAR-TAF:

METAR-TAF

Airports :

Boudghene Ben Ali Lotfi Airport

Béchar, Algeria

latitude: 31-37N, longitude: 002-14W, elevation: 773 m

Current weather observation

The report was made 58 minutes ago, at 19:00 UTC
Wind 5 kt from the West/Northwest
Temperature 9°C
Humidity 40%
Pressure 1026 hPa
Visibility 10 km or more
Few clouds at a height of 3300 ft

METAR: DAOR 031900Z 30005KT 9999 FEW033 09/M04 Q1026

Time: 20:58 (19:58 UTC)

Forecast

The report was made 2 hours and 58 minutes ago, at 17:00 UTC
Forecast valid from 03 at 18 UTC to 04 at 03 UTC
Wind 8 kt from the East/Northeast
Visibility: 8000 m
Scattered clouds at a height of 3300 ft

TAF: DAOR 031700Z 0318/0403 06008KT 8000 SCT033

Weather observations and forecasts of more than 4000 airports (METAR and TAF reports).

The available stations are represented by yellow and red dots on the map.

Hover mouse over dot to see the name of the station.

Then click to see weather observations and forecasts.

To change the map : click on the green buttons with a black cross to zoom in, on the green button with a dash to zoom out, or on the green arrows for adjacent maps.


METAR-TAF: